Time;durP1;ratioP1;P1;durP2;ratioP2;P2;SDS_P1;SDS_P2;PMS_P1;PMS_P2;Temp;Humidity;BMP_temperature;BMP_pressure;BME280_temperature;BME280_humidity;BME280_pressure;Samples;Min_cycle;Max_cycle;Signal;HPM_P1;HPM_P2
2023/01/30 00:00:35;;;;;;;27.55;13.35;;;7.40;99.90;;;;;;5119767;27;20208;-77
2023/01/30 00:03:01;;;;;;;27.55;12.57;;;7.40;99.90;;;;;;5111534;28;20184;-78
2023/01/30 00:05:27;;;;;;;28.48;12.45;;;7.40;99.90;;;;;;5130026;27;20188;-77
2023/01/30 00:07:52;;;;;;;25.65;12.23;;;7.40;99.90;;;;;;5115284;28;20183;-77
2023/01/30 00:10:18;;;;;;;28.73;11.98;;;7.40;99.90;;;;;;5107709;28;20189;-77
2023/01/30 00:12:44;;;;;;;29.50;11.75;;;7.40;99.90;;;;;;5100487;28;20664;-78
2023/01/30 00:15:10;;;;;;;24.60;12.13;;;7.40;99.90;;;;;;5131383;27;20172;-78
2023/01/30 00:17:36;;;;;;;29.25;11.65;;;7.50;99.90;;;;;;5119802;28;20176;-77
2023/01/30 00:20:02;;;;;;;25.00;10.90;;;7.50;99.90;;;;;;5128307;28;20204;-78
2023/01/30 00:22:28;;;;;;;27.55;11.63;;;7.50;99.90;;;;;;5117404;28;20183;-77
2023/01/30 00:24:54;;;;;;;22.15;10.43;;;7.50;99.90;;;;;;5117881;27;20173;-77
2023/01/30 00:27:19;;;;;;;20.52;10.55;;;7.60;99.90;;;;;;5114563;28;20211;-78
2023/01/30 00:29:45;;;;;;;29.45;10.35;;;7.50;99.90;;;;;;5117135;28;20625;-77
2023/01/30 00:32:11;;;;;;;27.00;10.63;;;7.50;99.90;;;;;;5117111;28;20189;-78
2023/01/30 00:34:39;;;;;;;23.35;9.32;;;7.50;99.90;;;;;;5126283;28;20223;-77
2023/01/30 00:37:05;;;;;;;28.90;9.65;;;7.60;99.90;;;;;;5132548;27;20265;-77
2023/01/30 00:39:30;;;;;;;22.00;9.77;;;7.60;99.90;;;;;;5128479;28;20305;-77
2023/01/30 00:47:24;;;;;;;23.38;8.95;;;7.60;99.90;;;;;;5115606;28;20172;-77
2023/01/30 00:49:52;;;;;;;22.63;8.98;;;7.60;99.90;;;;;;5122929;28;20189;-77
2023/01/30 00:52:18;;;;;;;21.60;8.77;;;7.60;99.90;;;;;;5114856;28;20230;-77
2023/01/30 00:54:44;;;;;;;25.92;8.73;;;7.60;99.90;;;;;;5127383;28;20189;-77
2023/01/30 00:57:10;;;;;;;20.75;8.10;;;7.60;99.90;;;;;;5111387;28;20193;-79
2023/01/30 00:59:36;;;;;;;18.65;9.13;;;7.60;99.90;;;;;;5123491;28;20185;-79
2023/01/30 01:02:02;;;;;;;21.02;8.70;;;7.60;99.90;;;;;;5118332;28;20212;-77
2023/01/30 01:04:27;;;;;;;19.67;8.52;;;7.60;99.90;;;;;;5121237;28;20629;-77
2023/01/30 01:06:53;;;;;;;19.02;8.57;;;7.60;99.90;;;;;;5112516;28;20178;-77
2023/01/30 01:09:19;;;;;;;21.08;8.55;;;7.60;99.90;;;;;;5113147;28;20264;-77
2023/01/30 01:11:45;;;;;;;16.83;7.75;;;7.50;99.90;;;;;;5125697;27;20187;-77
2023/01/30 01:14:10;;;;;;;17.17;7.70;;;7.50;99.90;;;;;;5134266;27;20220;-78
2023/01/30 01:16:36;;;;;;;18.17;7.30;;;7.60;99.90;;;;;;5123435;27;20177;-78
2023/01/30 01:19:03;;;;;;;18.05;7.53;;;7.50;99.90;;;;;;5127916;27;20300;-77
2023/01/30 01:21:28;;;;;;;14.13;6.82;;;7.50;99.90;;;;;;5124251;27;20227;-77
2023/01/30 01:23:57;;;;;;;18.35;6.95;;;7.50;99.90;;;;;;5129733;27;20221;-77
2023/01/30 01:26:23;;;;;;;10.48;6.07;;;7.50;99.90;;;;;;5117997;27;20246;-78
2023/01/30 01:28:54;;;;;;;15.55;6.07;;;7.50;99.90;;;;;;5122183;27;20205;-84
2023/01/30 01:31:20;;;;;;;14.05;6.25;;;7.50;99.90;;;;;;5126980;27;20610;-75
2023/01/30 01:33:47;;;;;;;11.77;5.65;;;7.50;99.90;;;;;;5133416;27;20172;-76
2023/01/30 01:36:12;;;;;;;11.23;5.68;;;7.50;99.90;;;;;;5115401;27;20628;-77
2023/01/30 01:38:41;;;;;;;8.55;5.05;;;7.50;99.90;;;;;;5121037;27;20172;-77
2023/01/30 01:41:11;;;;;;;13.45;5.70;;;7.50;99.90;;;;;;5124552;27;20206;-77
2023/01/30 01:43:57;;;;;;;10.40;5.47;;;7.50;99.90;;;;;;5129209;27;20186;-78
2023/01/30 01:46:27;;;;;;;10.18;5.30;;;7.60;99.90;;;;;;5133978;27;20179;-79
2023/01/30 01:48:56;;;;;;;12.88;5.60;;;7.50;99.90;;;;;;5125831;27;20184;-77
2023/01/30 01:51:41;;;;;;;15.77;6.03;;;7.60;99.90;;;;;;5135346;27;20640;-78
2023/01/30 01:54:21;;;;;;;13.68;5.78;;;7.60;99.90;;;;;;5121508;27;20185;-78
2023/01/30 01:56:49;;;;;;;12.80;6.18;;;7.60;99.90;;;;;;5128849;27;20263;-78
2023/01/30 01:59:25;;;;;;;12.77;5.90;;;7.60;99.90;;;;;;5131148;27;20174;-77
2023/01/30 02:01:55;;;;;;;12.60;6.88;;;7.60;99.90;;;;;;5121912;27;20204;-77
2023/01/30 02:05:00;;;;;;;18.23;6.82;;;7.60;99.90;;;;;;5123339;27;20550;-76
2023/01/30 02:07:08;;;;;;;18.83;6.63;;;7.60;99.90;;;;;;5132393;27;20197;-76
2023/01/30 02:09:34;;;;;;;17.75;7.43;;;7.60;99.90;;;;;;5124360;27;20169;-76
2023/01/30 02:12:03;;;;;;;22.15;8.18;;;7.60;99.90;;;;;;5124787;27;20212;-80
2023/01/30 02:14:33;;;;;;;20.70;7.35;;;7.70;99.90;;;;;;5126754;27;20256;-75
2023/01/30 02:16:58;;;;;;;22.38;8.07;;;7.70;99.90;;;;;;5124061;27;20177;-76
2023/01/30 02:19:35;;;;;;;21.95;7.90;;;7.70;99.90;;;;;;5120510;27;20185;-76
2023/01/30 02:22:30;;;;;;;23.85;8.60;;;7.70;99.90;;;;;;5118279;27;20287;-75
2023/01/30 02:25:23;;;;;;;26.42;8.10;;;7.70;99.90;;;;;;5131200;27;20252;-76
2023/01/30 02:28:10;;;;;;;34.03;9.02;;;7.70;99.90;;;;;;5115939;27;20640;-76
2023/01/30 02:30:36;;;;;;;30.75;8.30;;;7.70;99.90;;;;;;5125226;27;20176;-76
2023/01/30 02:33:11;;;;;;;33.47;7.50;;;7.70;99.90;;;;;;5121285;27;20260;-77
2023/01/30 02:36:03;;;;;;;24.63;7.95;;;7.70;99.90;;;;;;5116304;27;20176;-76
2023/01/30 02:38:40;;;;;;;32.88;8.23;;;7.80;99.90;;;;;;5112681;27;20161;-77
2023/01/30 02:41:26;;;;;;;37.15;9.25;;;7.80;99.90;;;;;;5119338;27;20196;-76
2023/01/30 02:44:05;;;;;;;26.77;7.78;;;7.80;99.90;;;;;;5117618;27;20172;-75
2023/01/30 02:47:06;;;;;;;33.17;7.07;;;7.80;99.90;;;;;;5125436;27;20225;-76
2023/01/30 02:49:46;;;;;;;28.73;7.25;;;7.80;99.90;;;;;;5113837;27;20187;-75
2023/01/30 02:52:14;;;;;;;26.05;6.90;;;7.80;99.90;;;;;;5132276;27;20256;-75
2023/01/30 02:54:40;;;;;;;30.17;7.28;;;7.90;99.90;;;;;;5132496;27;20227;-78
2023/01/30 02:57:23;;;;;;;26.13;7.57;;;7.90;99.90;;;;;;5123576;27;20176;-77
2023/01/30 03:00:02;;;;;;;29.85;6.25;;;7.90;99.90;;;;;;5131899;27;20179;-77
2023/01/30 03:03:12;;;;;;;32.13;5.97;;;7.90;99.90;;;;;;5122447;27;20229;-78
2023/01/30 03:06:06;;;;;;;28.33;6.03;;;7.90;99.90;;;;;;5128581;27;20654;-78
2023/01/30 03:08:37;;;;;;;27.25;6.25;;;7.90;99.90;;;;;;5117811;27;20539;-76
2023/01/30 03:11:08;;;;;;;30.30;6.22;;;7.90;99.90;;;;;;5123304;27;20181;-76
2023/01/30 03:13:47;;;;;;;35.13;6.15;;;7.90;99.90;;;;;;5130575;27;20204;-76
2023/01/30 03:16:38;;;;;;;17.30;5.22;;;7.90;99.90;;;;;;5114219;27;20200;-76
2023/01/30 03:19:05;;;;;;;28.63;5.55;;;7.90;99.90;;;;;;5118325;27;20632;-76
2023/01/30 03:21:32;;;;;;;27.95;5.95;;;7.90;99.90;;;;;;5113912;27;20685;-76
2023/01/30 03:23:58;;;;;;;27.17;4.80;;;7.90;99.90;;;;;;5124416;27;20176;-75
2023/01/30 03:26:29;;;;;;;27.40;5.20;;;7.90;99.90;;;;;;5132474;27;20273;-76
2023/01/30 03:28:55;;;;;;;27.88;5.53;;;7.90;99.90;;;;;;5128598;27;20285;-80
2023/01/30 03:31:21;;;;;;;33.33;5.45;;;7.90;99.90;;;;;;5125166;27;20223;-76
2023/01/30 03:33:48;;;;;;;28.08;4.65;;;7.80;99.90;;;;;;5129673;27;20261;-76
2023/01/30 03:36:14;;;;;;;35.92;5.13;;;7.80;99.90;;;;;;5122981;27;20301;-75
2023/01/30 03:38:40;;;;;;;30.33;4.65;;;7.80;99.90;;;;;;5124869;27;20189;-77
2023/01/30 03:41:06;;;;;;;27.63;4.70;;;7.70;99.90;;;;;;5123792;27;20204;-76
2023/01/30 03:43:33;;;;;;;29.40;4.63;;;7.70;99.90;;;;;;5115664;27;20642;-76
2023/01/30 03:46:01;;;;;;;34.47;5.10;;;7.70;99.90;;;;;;5123938;27;20173;-83
2023/01/30 03:48:27;;;;;;;25.48;4.70;;;7.60;99.90;;;;;;5098974;27;20652;-76
2023/01/30 03:50:55;;;;;;;29.80;4.65;;;7.60;99.90;;;;;;5121076;27;20244;-76
2023/01/30 03:53:20;;;;;;;23.95;4.15;;;7.60;99.90;;;;;;5129939;27;20184;-76
2023/01/30 03:55:47;;;;;;;32.58;5.22;;;7.60;99.90;;;;;;5117807;27;20325;-79
2023/01/30 03:58:13;;;;;;;31.27;5.20;;;7.50;99.90;;;;;;5124131;27;20184;-76
2023/01/30 04:00:39;;;;;;;30.35;5.30;;;7.50;99.90;;;;;;5121863;27;20209;-76
2023/01/30 04:03:04;;;;;;;22.77;4.10;;;7.50;99.90;;;;;;5112263;27;20204;-76
2023/01/30 04:05:31;;;;;;;27.20;4.20;;;7.50;99.90;;;;;;5126176;27;20187;-76
2023/01/30 04:08:03;;;;;;;36.65;5.38;;;7.50;99.90;;;;;;5114582;28;20654;-76
2023/01/30 04:10:29;;;;;;;34.20;4.57;;;7.40;99.90;;;;;;5118777;28;20177;-77
2023/01/30 04:12:55;;;;;;;28.23;4.85;;;7.50;99.90;;;;;;5129639;28;20192;-83
2023/01/30 04:15:22;;;;;;;28.20;4.85;;;7.40;99.90;;;;;;5111684;28;20268;-77
2023/01/30 04:17:47;;;;;;;28.17;4.88;;;7.40;99.90;;;;;;5116661;28;20322;-76
2023/01/30 04:20:41;;;;;;;26.90;4.68;;;7.40;99.90;;;;;;5114838;28;20211;-77
2023/01/30 04:23:07;;;;;;;32.30;4.22;;;7.30;99.90;;;;;;5128743;28;20192;-76
2023/01/30 04:25:34;;;;;;;34.35;5.00;;;7.30;99.90;;;;;;5125744;28;20173;-75
2023/01/30 04:27:59;;;;;;;30.23;4.25;;;7.30;99.90;;;;;;5117506;28;20540;-77
2023/01/30 04:30:30;;;;;;;23.35;3.50;;;7.30;99.90;;;;;;5111528;28;20196;-76
2023/01/30 04:33:13;;;;;;;37.55;4.53;;;7.20;99.90;;;;;;5127876;28;20277;-77
2023/01/30 04:35:40;;;;;;;28.65;4.40;;;7.20;99.90;;;;;;5111430;28;20173;-77
2023/01/30 04:38:07;;;;;;;33.28;4.25;;;7.20;99.90;;;;;;5127627;28;20253;-78
2023/01/30 04:40:32;;;;;;;25.27;4.78;;;7.10;99.90;;;;;;5097770;28;20265;-77
2023/01/30 04:42:58;;;;;;;30.23;4.32;;;7.10;99.90;;;;;;5131850;27;20179;-78
2023/01/30 04:45:48;;;;;;;43.65;5.63;;;7.20;99.90;;;;;;5102281;27;20273;-77
2023/01/30 04:48:15;;;;;;;33.55;4.68;;;7.10;99.90;;;;;;5127992;27;20196;-77
2023/01/30 04:50:43;;;;;;;26.80;4.70;;;7.10;99.90;;;;;;5125819;27;20640;-76
2023/01/30 04:53:09;;;;;;;32.85;4.70;;;7.10;99.90;;;;;;5117500;27;20205;-77
2023/01/30 04:55:35;;;;;;;32.72;5.13;;;7.10;99.90;;;;;;5129460;27;20705;-77
2023/01/30 04:58:02;;;;;;;30.33;4.82;;;7.10;99.90;;;;;;5128912;27;20174;-78
2023/01/30 05:00:28;;;;;;;27.02;4.47;;;7.10;99.90;;;;;;5125621;27;20319;-76
2023/01/30 05:02:58;;;;;;;31.77;4.25;;;7.00;99.90;;;;;;5120790;27;20589;-77
2023/01/30 05:05:26;;;;;;;28.35;4.28;;;7.00;99.90;;;;;;5134498;27;20289;-76
2023/01/30 05:07:51;;;;;;;24.50;4.85;;;7.00;99.90;;;;;;5134329;27;20184;-75
2023/01/30 05:10:18;;;;;;;35.97;5.00;;;7.00;99.90;;;;;;5125474;27;20246;-76
2023/01/30 05:12:44;;;;;;;36.13;4.88;;;7.00;99.90;;;;;;5134554;27;20602;-76
2023/01/30 05:15:11;;;;;;;32.72;3.83;;;7.00;99.90;;;;;;5120135;27;20212;-75
2023/01/30 05:17:37;;;;;;;37.00;4.55;;;7.00;99.90;;;;;;5117049;27;20181;-75
2023/01/30 05:20:05;;;;;;;45.75;4.93;;;7.00;99.90;;;;;;5119715;27;20257;-76
2023/01/30 05:22:30;;;;;;;28.33;4.10;;;7.00;99.90;;;;;;5118652;27;20598;-78
2023/01/30 05:24:56;;;;;;;34.75;4.40;;;7.00;99.90;;;;;;5130602;27;20272;-77
2023/01/30 05:27:22;;;;;;;27.45;4.10;;;6.90;99.90;;;;;;5114339;27;20182;-76
2023/01/30 05:29:47;;;;;;;28.15;4.05;;;7.00;99.90;;;;;;5121029;27;20191;-75
2023/01/30 05:32:15;;;;;;;27.60;4.32;;;6.90;99.90;;;;;;5123654;27;20185;-76
2023/01/30 05:34:41;;;;;;;33.08;4.05;;;6.90;99.90;;;;;;5134983;27;20271;-76
2023/01/30 05:37:07;;;;;;;27.83;4.05;;;6.80;99.90;;;;;;5118778;27;20206;-75
2023/01/30 05:39:33;;;;;;;29.52;4.30;;;6.80;99.90;;;;;;5122475;27;20176;-75
2023/01/30 05:41:58;;;;;;;26.50;4.38;;;6.80;99.90;;;;;;5128992;27;20204;-76
2023/01/30 05:44:24;;;;;;;37.88;4.85;;;6.80;99.90;;;;;;5122354;27;20199;-77
2023/01/30 05:46:50;;;;;;;29.20;4.72;;;6.80;99.90;;;;;;5124041;27;20168;-76
2023/01/30 05:49:16;;;;;;;37.35;4.28;;;6.80;99.90;;;;;;5134260;27;20184;-77
2023/01/30 05:51:42;;;;;;;33.03;4.38;;;6.80;99.90;;;;;;5121693;27;20196;-77
2023/01/30 05:54:08;;;;;;;41.83;4.68;;;6.80;99.90;;;;;;5119285;27;20200;-77
2023/01/30 05:56:33;;;;;;;33.60;4.85;;;6.80;99.90;;;;;;5122707;27;20185;-77
2023/01/30 05:59:01;;;;;;;38.95;4.82;;;6.80;99.90;;;;;;5122112;27;20425;-77
2023/01/30 06:01:28;;;;;;;33.05;4.68;;;6.80;99.90;;;;;;5131543;27;20196;-77
2023/01/30 06:03:54;;;;;;;40.83;5.03;;;6.80;99.90;;;;;;5134513;27;20184;-77
2023/01/30 06:06:21;;;;;;;32.90;4.53;;;6.80;99.90;;;;;;5122844;27;20184;-77
2023/01/30 06:08:47;;;;;;;32.08;4.65;;;6.80;99.90;;;;;;5120383;27;20173;-77
2023/01/30 06:11:15;;;;;;;35.90;5.00;;;6.80;99.90;;;;;;5123321;27;20215;-78
2023/01/30 06:13:41;;;;;;;30.77;4.93;;;6.80;99.90;;;;;;5124594;27;20212;-76
2023/01/30 06:16:10;;;;;;;37.10;5.15;;;6.80;99.90;;;;;;5131980;27;20275;-77
2023/01/30 06:18:37;;;;;;;34.03;4.55;;;6.80;99.90;;;;;;5130970;27;20658;-77
2023/01/30 06:21:04;;;;;;;27.95;4.60;;;6.80;99.90;;;;;;5120693;27;20220;-78
2023/01/30 06:23:29;;;;;;;36.83;4.53;;;6.90;99.90;;;;;;5119145;27;20659;-80
2023/01/30 06:25:56;;;;;;;29.75;4.70;;;6.80;99.90;;;;;;5128664;27;20185;-78
2023/01/30 06:28:23;;;;;;;28.05;4.15;;;6.90;99.90;;;;;;5123578;27;20253;-77
2023/01/30 06:30:49;;;;;;;33.75;4.72;;;6.90;99.90;;;;;;5122333;27;20188;-77
2023/01/30 06:33:16;;;;;;;38.00;5.20;;;6.90;99.90;;;;;;5116597;27;20176;-77
2023/01/30 06:35:42;;;;;;;36.25;5.13;;;6.90;99.90;;;;;;5119514;27;20264;-76
2023/01/30 06:38:10;;;;;;;28.50;4.90;;;7.00;99.90;;;;;;5114301;27;20530;-77
2023/01/30 06:40:37;;;;;;;31.13;4.75;;;6.90;99.90;;;;;;5128015;27;20201;-77
2023/01/30 06:43:03;;;;;;;30.75;3.92;;;7.00;99.90;;;;;;5121829;27;20184;-77
2023/01/30 06:45:29;;;;;;;32.28;4.78;;;7.00;99.90;;;;;;5125600;27;20659;-77
2023/01/30 06:47:55;;;;;;;31.08;4.50;;;7.00;99.90;;;;;;5122099;27;20197;-84
2023/01/30 06:50:26;;;;;;;32.30;4.20;;;7.00;99.90;;;;;;5130872;27;20188;-77
2023/01/30 06:52:53;;;;;;;33.13;4.30;;;7.00;99.90;;;;;;5115294;27;20177;-77
2023/01/30 06:55:22;;;;;;;36.78;5.13;;;7.00;99.90;;;;;;5133841;27;20189;-76
2023/01/30 06:57:48;;;;;;;28.48;3.97;;;7.00;99.90;;;;;;5132515;27;20261;-78
2023/01/30 07:00:19;;;;;;;39.47;5.32;;;7.00;99.90;;;;;;5124766;27;20280;-78
2023/01/30 07:02:45;;;;;;;29.77;4.60;;;7.00;99.90;;;;;;5130540;27;20180;-76
2023/01/30 07:05:11;;;;;;;30.38;4.53;;;7.00;99.90;;;;;;5121485;27;20213;-76
2023/01/30 07:07:37;;;;;;;32.05;4.50;;;7.10;99.90;;;;;;5122353;27;20234;-76
2023/01/30 07:10:05;;;;;;;32.22;4.95;;;7.10;99.90;;;;;;5116770;27;20571;-76
2023/01/30 07:12:31;;;;;;;34.15;5.03;;;7.00;99.90;;;;;;5112507;27;20655;-77
2023/01/30 07:14:57;;;;;;;30.50;4.70;;;7.00;99.90;;;;;;5123187;27;20331;-76
2023/01/30 07:17:23;;;;;;;34.85;4.65;;;7.10;99.90;;;;;;5114932;27;20191;-75
2023/01/30 07:19:49;;;;;;;33.15;4.32;;;7.00;99.90;;;;;;5127759;27;20181;-78
2023/01/30 07:22:15;;;;;;;34.00;4.30;;;7.00;99.90;;;;;;5113748;27;20209;-75
2023/01/30 07:24:44;;;;;;;27.45;4.38;;;7.10;99.90;;;;;;5122344;27;21822;-75
2023/01/30 07:27:11;;;;;;;25.45;3.92;;;7.10;99.90;;;;;;5132143;27;20204;-75
2023/01/30 07:29:38;;;;;;;33.63;4.95;;;7.10;99.90;;;;;;5130870;27;20235;-75
2023/01/30 07:32:05;;;;;;;35.17;4.68;;;7.10;99.90;;;;;;5129756;27;20177;-76
2023/01/30 07:34:31;;;;;;;39.45;5.03;;;7.10;99.90;;;;;;5118018;27;20696;-76
2023/01/30 07:36:57;;;;;;;35.38;4.95;;;7.10;99.90;;;;;;5113081;28;20178;-77
2023/01/30 07:39:22;;;;;;;36.22;5.22;;;7.10;99.90;;;;;;5117586;27;20174;-76
2023/01/30 07:41:48;;;;;;;31.95;4.70;;;7.20;99.90;;;;;;5122207;27;20235;-77
2023/01/30 07:44:16;;;;;;;34.47;4.93;;;7.20;99.90;;;;;;5129429;27;20550;-75
2023/01/30 07:46:42;;;;;;;29.35;4.80;;;7.20;99.90;;;;;;5133359;27;20177;-75
2023/01/30 07:49:08;;;;;;;28.45;4.35;;;7.20;99.90;;;;;;5123904;27;20181;-76
2023/01/30 07:51:34;;;;;;;37.58;4.57;;;7.20;99.90;;;;;;5127477;27;20634;-76
2023/01/30 07:54:00;;;;;;;32.58;4.80;;;7.20;99.90;;;;;;5109611;27;20212;-79
2023/01/30 07:56:26;;;;;;;31.92;4.65;;;7.20;99.90;;;;;;5126086;27;20176;-75
2023/01/30 07:58:54;;;;;;;33.45;4.60;;;7.30;99.90;;;;;;5124273;27;20177;-76
2023/01/30 08:01:20;;;;;;;27.10;4.30;;;7.30;99.90;;;;;;5133731;27;20207;-79
2023/01/30 08:03:48;;;;;;;33.25;4.75;;;7.30;99.90;;;;;;5114900;27;20279;-77
2023/01/30 08:06:14;;;;;;;30.35;5.13;;;7.30;99.90;;;;;;5121991;27;20216;-81
2023/01/30 08:08:41;;;;;;;28.10;3.97;;;7.30;99.90;;;;;;5133159;27;20180;-79
2023/01/30 08:11:07;;;;;;;29.92;3.92;;;7.30;99.90;;;;;;5133570;27;20216;-77
2023/01/30 08:13:33;;;;;;;29.95;4.35;;;7.30;99.90;;;;;;5127119;27;20667;-77
2023/01/30 08:15:59;;;;;;;27.55;4.28;;;7.30;99.90;;;;;;5113253;28;20170;-77
2023/01/30 08:18:27;;;;;;;24.30;3.88;;;7.30;99.90;;;;;;5122006;28;20256;-76
2023/01/30 08:20:56;;;;;;;35.53;4.82;;;7.40;99.90;;;;;;5125373;28;20706;-77
2023/01/30 08:23:22;;;;;;;24.88;4.28;;;7.40;99.90;;;;;;5126330;27;20544;-81
2023/01/30 08:25:48;;;;;;;29.08;4.45;;;7.40;99.90;;;;;;5117729;27;20184;-76
2023/01/30 08:28:14;;;;;;;25.77;3.90;;;7.40;99.90;;;;;;5134197;27;21128;-77
2023/01/30 08:30:41;;;;;;;34.83;4.72;;;7.40;99.90;;;;;;5136542;27;20521;-78
2023/01/30 08:33:07;;;;;;;32.47;4.50;;;7.40;99.90;;;;;;5133957;27;20244;-77
2023/01/30 08:35:33;;;;;;;39.35;4.65;;;7.40;99.90;;;;;;5137149;27;20268;-77
2023/01/30 08:37:59;;;;;;;36.08;4.60;;;7.40;99.90;;;;;;5135285;27;20272;-79
2023/01/30 08:40:24;;;;;;;31.13;4.53;;;7.50;99.90;;;;;;5135050;27;20697;-78
2023/01/30 08:42:50;;;;;;;34.50;4.40;;;7.50;99.90;;;;;;5136074;27;20172;-77
2023/01/30 08:45:16;;;;;;;31.60;4.65;;;7.50;99.90;;;;;;5135730;27;20508;-77
2023/01/30 08:47:42;;;;;;;26.27;4.30;;;7.60;99.90;;;;;;5135827;27;20181;-79
2023/01/30 08:50:08;;;;;;;27.77;3.85;;;7.60;99.90;;;;;;5134076;27;20177;-77
2023/01/30 08:52:34;;;;;;;24.48;4.40;;;7.60;99.90;;;;;;5136263;27;20172;-77
2023/01/30 08:55:00;;;;;;;27.55;3.92;;;7.80;99.90;;;;;;5134960;27;20187;-80
2023/01/30 08:57:26;;;;;;;28.25;4.15;;;7.90;99.90;;;;;;5137467;27;20180;-78
2023/01/30 08:59:51;;;;;;;26.75;4.38;;;8.00;99.90;;;;;;5133955;27;20177;-75
2023/01/30 09:02:17;;;;;;;34.10;4.47;;;8.20;99.90;;;;;;5135330;27;20208;-76
2023/01/30 09:04:43;;;;;;;27.75;4.57;;;8.30;99.90;;;;;;5130640;27;20185;-75
2023/01/30 09:07:09;;;;;;;43.42;5.28;;;8.30;99.90;;;;;;5115841;28;20268;-76
2023/01/30 09:09:35;;;;;;;38.28;4.32;;;8.30;99.90;;;;;;5117045;27;20212;-75
2023/01/30 09:12:00;;;;;;;23.27;4.03;;;8.30;99.90;;;;;;5131601;27;20612;-76
2023/01/30 09:14:26;;;;;;;30.58;4.68;;;8.20;99.90;;;;;;5134326;27;20224;-75
2023/01/30 09:16:54;;;;;;;31.15;4.35;;;8.20;99.90;;;;;;5129639;27;20237;-75
2023/01/30 09:19:25;;;;;;;28.92;4.68;;;8.10;99.90;;;;;;5122231;27;20181;-76
2023/01/30 09:21:52;;;;;;;31.70;4.95;;;8.10;99.90;;;;;;5115782;28;20205;-76
2023/01/30 09:24:18;;;;;;;35.50;5.45;;;8.00;99.90;;;;;;5126138;27;20181;-76
2023/01/30 09:26:44;;;;;;;31.67;4.65;;;8.00;99.90;;;;;;5134895;27;20168;-75
2023/01/30 09:29:13;;;;;;;40.65;5.20;;;8.00;99.90;;;;;;5133781;27;20233;-76
2023/01/30 09:31:40;;;;;;;30.40;4.93;;;7.90;99.90;;;;;;5136173;27;20173;-77
2023/01/30 09:34:06;;;;;;;32.53;4.85;;;7.90;99.90;;;;;;5133442;27;20547;-78
2023/01/30 09:36:32;;;;;;;37.80;4.75;;;7.90;99.90;;;;;;5135175;27;20196;-77
2023/01/30 09:38:58;;;;;;;31.98;4.78;;;7.90;99.90;;;;;;5134246;27;20550;-77
2023/01/30 09:41:36;;;;;;;31.02;4.38;;;7.90;99.90;;;;;;5132693;27;20200;-77
2023/01/30 09:44:18;;;;;;;33.08;4.72;;;7.80;99.90;;;;;;5134231;27;20188;-77
2023/01/30 09:47:02;;;;;;;32.05;4.68;;;7.80;99.90;;;;;;5134347;27;20581;-76
2023/01/30 09:49:43;;;;;;;37.08;5.03;;;7.80;99.90;;;;;;5134812;27;20196;-76
2023/01/30 09:52:32;;;;;;;37.47;5.07;;;7.90;99.90;;;;;;5135659;27;20654;-75
2023/01/30 09:55:23;;;;;;;36.38;5.05;;;8.00;99.90;;;;;;5134446;27;20224;-76
2023/01/30 09:57:50;;;;;;;36.08;4.72;;;8.20;99.90;;;;;;5135108;27;20176;-76
2023/01/30 10:00:42;;;;;;;38.72;5.05;;;8.30;99.90;;;;;;5115166;27;20189;-76
2023/01/30 10:03:32;;;;;;;38.78;5.60;;;8.70;99.90;;;;;;5130792;27;20188;-75
2023/01/30 10:06:01;;;;;;;43.95;6.00;;;8.90;99.90;;;;;;5134147;27;20685;-79
2023/01/30 10:08:45;;;;;;;31.48;5.68;;;8.90;99.90;;;;;;5133886;27;20183;-75
2023/01/30 10:11:40;;;;;;;40.20;6.22;;;9.10;99.90;;;;;;5134615;27;20196;-78
2023/01/30 10:14:06;;;;;;;41.35;5.80;;;9.60;99.90;;;;;;5125663;27;20234;-76
2023/01/30 10:16:54;;;;;;;23.73;4.63;;;9.90;99.90;;;;;;5133617;27;20172;-76
2023/01/30 10:19:37;;;;;;;38.92;5.63;;;10.00;99.90;;;;;;5125814;27;20610;-78
2023/01/30 10:22:50;;;;;;;32.22;5.53;;;10.00;99.90;;;;;;5134088;27;20341;-76
2023/01/30 10:25:26;;;;;;;43.05;5.78;;;10.10;99.90;;;;;;5070813;28;20190;-76
2023/01/30 10:27:58;;;;;;;25.70;4.93;;;9.80;99.90;;;;;;5107533;27;20226;-78
2023/01/30 10:30:24;;;;;;;17.58;2.70;;;9.50;99.90;;;;;;5113898;27;20189;-77
2023/01/30 10:33:06;;;;;;;15.65;2.50;;;9.10;99.90;;;;;;5096479;28;20187;-75
2023/01/30 10:35:37;;;;;;;16.10;2.42;;;8.90;99.90;;;;;;5113127;28;20253;-76
2023/01/30 10:38:25;;;;;;;12.25;1.85;;;8.70;99.90;;;;;;5114670;27;20617;-81
2023/01/30 10:41:11;;;;;;;8.55;1.60;;;8.50;99.90;;;;;;5096674;28;20667;-77
2023/01/30 10:44:04;;;;;;;12.38;1.90;;;8.30;99.90;;;;;;5118151;27;20214;-76
2023/01/30 10:46:58;;;;;;;5.65;1.50;;;8.20;99.90;;;;;;5133830;27;20236;-75
2023/01/30 10:49:35;;;;;;;5.05;1.45;;;8.40;99.90;;;;;;5128345;27;20588;-76
2023/01/30 10:52:30;;;;;;;4.95;1.17;;;10.00;99.90;;;;;;5113939;27;20172;-75
2023/01/30 10:55:07;;;;;;;9.05;1.85;;;12.30;99.90;;;;;;5125978;27;20254;-80
2023/01/30 10:57:48;;;;;;;8.55;1.60;;;14.10;99.90;;;;;;5118386;27;20164;-76
2023/01/30 11:00:18;;;;;;;9.98;2.20;;;15.60;99.90;;;;;;5132187;27;20220;-78
2023/01/30 11:03:21;;;;;;;17.10;2.70;;;16.60;99.90;;;;;;5133783;27;20180;-77
2023/01/30 11:05:53;;;;;;;12.20;2.40;;;17.60;99.90;;;;;;5133250;27;20278;-77
2023/01/30 11:08:30;;;;;;;11.32;2.20;;;18.40;98.90;;;;;;5133820;27;20180;-77
2023/01/30 11:10:57;;;;;;;21.20;3.20;;;18.80;97.60;;;;;;5125912;27;20188;-77
2023/01/30 11:13:31;;;;;;;16.70;2.88;;;19.20;95.60;;;;;;5130352;27;20331;-76
2023/01/30 11:16:06;;;;;;;17.63;3.35;;;19.40;95.10;;;;;;5115574;27;20176;-83
2023/01/30 11:18:43;;;;;;;15.55;3.55;;;19.10;93.60;;;;;;5119329;27;20267;-77
2023/01/30 11:21:18;;;;;;;16.67;3.58;;;18.50;93.50;;;;;;5130137;27;20639;-77
2023/01/30 11:23:44;;;;;;;17.13;3.15;;;18.50;93.10;;;;;;5115997;27;20180;-77
2023/01/30 11:26:18;;;;;;;16.35;3.63;;;18.20;91.60;;;;;;5113808;28;20578;-76
2023/01/30 11:28:45;;;;;;;20.77;3.78;;;18.00;91.20;;;;;;5119127;27;20263;-76
2023/01/30 11:31:27;;;;;;;24.15;3.45;;;18.20;90.50;;;;;;5130643;27;20560;-76
2023/01/30 11:34:05;;;;;;;14.20;3.22;;;18.00;90.10;;;;;;5119213;27;20173;-76
2023/01/30 11:36:34;;;;;;;16.77;3.25;;;17.30;88.90;;;;;;5113631;28;20172;-75
2023/01/30 11:39:11;;;;;;;23.77;3.65;;;16.50;90.70;;;;;;5130088;27;20679;-76
2023/01/30 11:41:41;;;;;;;17.45;3.33;;;15.50;91.80;;;;;;5132873;27;20214;-76
2023/01/30 11:44:09;;;;;;;15.93;2.72;;;14.20;93.30;;;;;;5132810;27;20180;-76
2023/01/30 11:46:37;;;;;;;13.82;2.97;;;13.30;95.10;;;;;;5133693;27;20259;-77
2023/01/30 11:49:10;;;;;;;18.13;3.20;;;12.70;96.50;;;;;;5131200;27;20192;-76
2023/01/30 11:51:37;;;;;;;13.40;2.90;;;12.50;96.90;;;;;;5124655;27;20176;-76
2023/01/30 11:54:12;;;;;;;14.48;2.80;;;12.50;97.50;;;;;;5132336;27;20191;-77
2023/01/30 11:56:51;;;;;;;28.48;3.33;;;12.10;97.40;;;;;;5112864;28;20192;-77
2023/01/30 11:59:48;;;;;;;19.10;3.08;;;11.80;98.00;;;;;;5113635;28;20225;-77
2023/01/30 12:02:36;;;;;;;18.23;3.33;;;11.60;98.70;;;;;;5113065;27;20215;-77
2023/01/30 12:05:05;;;;;;;24.90;3.42;;;11.80;99.40;;;;;;5127533;27;20185;-77
2023/01/30 12:07:34;;;;;;;19.35;3.28;;;12.10;99.10;;;;;;5133129;27;20177;-80
2023/01/30 12:09:59;;;;;;;15.27;3.05;;;12.60;98.90;;;;;;5132302;28;20173;-76
2023/01/30 12:12:31;;;;;;;18.55;2.75;;;13.40;98.10;;;;;;5132397;28;20185;-77
2023/01/30 12:15:11;;;;;;;27.52;4.10;;;14.30;97.30;;;;;;5130681;28;20263;-78
2023/01/30 12:17:57;;;;;;;19.70;3.50;;;14.80;95.70;;;;;;5100926;28;20252;-76
2023/01/30 12:20:48;;;;;;;23.40;3.88;;;15.40;94.60;;;;;;5113837;28;20185;-77
2023/01/30 12:23:16;;;;;;;22.75;3.55;;;15.20;93.50;;;;;;5113113;28;20180;-78
2023/01/30 12:26:04;;;;;;;21.77;4.28;;;14.90;94.20;;;;;;5112906;28;20169;-76
2023/01/30 12:28:47;;;;;;;24.67;3.65;;;14.20;94.80;;;;;;5116447;28;20192;-76
2023/01/30 12:31:38;;;;;;;23.92;4.20;;;13.60;95.70;;;;;;5133654;27;20164;-78
2023/01/30 12:34:04;;;;;;;27.90;4.65;;;12.80;96.70;;;;;;5132244;28;20216;-78
2023/01/30 12:36:46;;;;;;;24.95;4.10;;;12.30;97.90;;;;;;5132251;28;20208;-79
2023/01/30 12:39:41;;;;;;;23.25;4.07;;;11.90;98.90;;;;;;5117360;28;20177;-77
2023/01/30 12:42:38;;;;;;;27.38;4.57;;;11.70;99.50;;;;;;5123741;28;20204;-81
2023/01/30 12:45:16;;;;;;;25.30;4.78;;;11.70;99.90;;;;;;5131522;28;20628;-78
2023/01/30 12:47:54;;;;;;;33.55;4.53;;;11.60;99.90;;;;;;5132801;28;20168;-78
2023/01/30 12:50:41;;;;;;;20.83;3.67;;;11.60;99.90;;;;;;5116806;28;20505;-78
2023/01/30 12:53:15;;;;;;;26.35;4.30;;;11.30;99.90;;;;;;5119777;28;20184;-78
2023/01/30 12:56:16;;;;;;;27.98;4.07;;;11.10;99.90;;;;;;5126098;28;20218;-77
2023/01/30 12:58:58;;;;;;;32.00;4.20;;;11.00;99.90;;;;;;5112702;28;20217;-77
2023/01/30 13:01:38;;;;;;;38.53;4.22;;;10.80;99.90;;;;;;5129082;28;20196;-77
2023/01/30 13:04:21;;;;;;;26.15;4.32;;;10.90;99.90;;;;;;5131118;28;20234;-77
2023/01/30 13:06:49;;;;;;;30.73;4.40;;;11.10;99.90;;;;;;5113313;27;20193;-78
2023/01/30 13:09:37;;;;;;;22.17;4.47;;;11.30;99.90;;;;;;5117076;27;20193;-77
2023/01/30 13:12:22;;;;;;;23.30;3.83;;;11.20;99.90;;;;;;5116281;28;20243;-77